Pagina principale
METAR-TAF:

METAR-TAF

Aeroporti :

Caracas, Venezuela

Aeroporto Internazionale Simón Bolívar

latitudine: 10-36N, longitudine: 066-59W, altezza: 43 m

Osservazione

Il bollettino è stato emesso 10 minuti fa, alle 06:00 UTC
Vento calmo
Temperature 24°C
Umidità 89%
Pressione 1016 hPa
Visibilità 10 km o più
Poco nuvoloso ad un'altezza di 1600 ft

METAR: SVMI 230600Z 00000KT 9999 FEW016 24/22 Q1016

Ora: 02:10 (06:10 UTC)

Previsione

Il bollettino è stato emesso 2 ore e 10 minuti fa, alle 04:00 UTC
Previsione valida dal 23 alle 06 UTC al 24 alle 06 UTC
Vento 10 kt da est
Visibilità 10 km o più
Nubi sparse ad un'altezza di 1600 ft
Evoluzione graduale
dal 23 alle 06 UTC al 23 alle 10 UTC
Vento kt da nord
Poco nuvoloso ad un'altezza di 1600 ft

TAF: SVMI 230400Z 2306/2406 09010KT 9999 SCT016 TX32/18Z TN24/09Z BECMG 2306/2310 00000KT FEW016

Osservazioni e previsioni meteorologiche di più di 4000 aeroporti (messaggi METAR e TAF).

Le stazioni disponibili sono rappresentate dai dischi gialli e rossi sulla carta.

Puntare il mouse per vedere il nome della stazione.

Clicca sopra per visualizzare le osservazioni e previsioni meteorologiche.

Per cambiare la mappa : fare clic sui pulsanti verdi con una croce nera per ingrandire, il pulsante verde con un trattino per diminuire, o sulla freccia verde per le mappe adiacenti.


METAR-TAF: